Time;durP1;ratioP1;P1;durP2;ratioP2;P2;SDS_P1;SDS_P2;PMS_P1;PMS_P2;Temp;Humidity;BMP_temperature;BMP_pressure;BME280_temperature;BME280_humidity;BME280_pressure;Samples;Min_cycle;Max_cycle;Signal;HPM_P1;HPM_P2
2024/04/19 00:02:24;;;;;;;5.70;2.75;;;;;;;;;;5412967;26;19999;-68
2024/04/19 00:04:49;;;;;;;8.60;3.08;;;;;;;;;;5400305;26;20004;-68
2024/04/19 00:07:14;;;;;;;4.60;2.60;;;;;;;;;;5405661;26;20011;-68
2024/04/19 00:09:39;;;;;;;9.53;2.97;;;;;;;;;;5413050;26;20421;-68
2024/04/19 00:12:05;;;;;;;10.90;2.53;;;;;;;;;;5413855;26;20253;-69
2024/04/19 00:14:30;;;;;;;6.43;2.45;;;;;;;;;;5407236;26;19995;-69
2024/04/19 00:16:55;;;;;;;10.98;2.72;;;;;;;;;;5413030;26;19995;-68
2024/04/19 00:19:20;;;;;;;5.85;2.63;;;;;;;;;;5393095;26;20040;-68
2024/04/19 00:21:45;;;;;;;6.00;2.80;;;;;;;;;;5409925;26;19996;-68
2024/04/19 00:24:11;;;;;;;5.38;2.28;;;;;;;;;;5414347;26;20003;-68
2024/04/19 00:26:36;;;;;;;9.50;3.22;;;;;;;;;;5397497;26;20458;-68
2024/04/19 00:29:01;;;;;;;5.50;2.80;;;;;;;;;;5414284;26;20076;-68
2024/04/19 00:31:26;;;;;;;12.25;2.90;;;;;;;;;;5412528;26;20857;-68
2024/04/19 00:33:51;;;;;;;3.43;2.23;;;;;;;;;;5413797;26;19996;-68
2024/04/19 00:36:17;;;;;;;16.40;3.37;;;;;;;;;;5407498;26;20237;-68
2024/04/19 00:38:42;;;;;;;6.00;2.15;;;;;;;;;;5405511;26;20592;-68
2024/04/19 00:41:07;;;;;;;5.13;2.73;;;;;;;;;;5413895;26;20007;-68
2024/04/19 00:43:32;;;;;;;7.47;3.40;;;;;;;;;;5408983;26;20293;-68
2024/04/19 00:45:57;;;;;;;14.05;2.90;;;;;;;;;;5389431;26;20765;-68
2024/04/19 00:48:24;;;;;;;8.63;3.47;;;;;;;;;;5408219;26;19992;-68
2024/04/19 00:50:50;;;;;;;6.55;3.17;;;;;;;;;;5406245;26;20004;-68
2024/04/19 00:53:19;;;;;;;5.68;2.70;;;;;;;;;;5410538;26;20006;-68
2024/04/19 00:55:44;;;;;;;8.25;3.78;;;;;;;;;;5409730;26;19992;-69
2024/04/19 00:58:09;;;;;;;8.02;2.70;;;;;;;;;;5399489;26;19993;-68
2024/04/19 01:00:35;;;;;;;7.63;3.80;;;;;;;;;;5393995;26;20003;-68
2024/04/19 01:03:00;;;;;;;12.57;3.88;;;;;;;;;;5378943;26;20000;-68
2024/04/19 01:05:25;;;;;;;11.20;3.93;;;;;;;;;;5404458;26;19996;-68
2024/04/19 01:07:51;;;;;;;11.93;4.82;;;;;;;;;;5396761;26;20241;-68
2024/04/19 01:10:17;;;;;;;12.55;4.15;;;;;;;;;;5412278;26;19999;-68
2024/04/19 01:12:42;;;;;;;15.40;3.80;;;;;;;;;;5412882;26;20014;-68
2024/04/19 01:15:17;;;;;;;9.40;4.50;;;;;;;;;;5376763;26;20451;-68
2024/04/19 01:17:43;;;;;;;6.85;3.30;;;;;;;;;;5398071;26;20241;-68
2024/04/19 01:20:08;;;;;;;7.93;4.40;;;;;;;;;;5406545;26;20220;-68
2024/04/19 01:22:33;;;;;;;21.90;5.72;;;;;;;;;;5407281;26;20000;-68
2024/04/19 01:24:59;;;;;;;7.72;3.45;;;;;;;;;;5398843;26;20530;-68
2024/04/19 01:27:24;;;;;;;7.72;4.72;;;;;;;;;;5412238;26;20010;-68
2024/04/19 01:29:49;;;;;;;10.90;5.00;;;;;;;;;;5398318;26;20047;-68
2024/04/19 01:32:15;;;;;;;8.75;4.70;;;;;;;;;;5409315;26;20281;-68
2024/04/19 01:34:40;;;;;;;12.07;4.13;;;;;;;;;;5406754;26;20000;-68
2024/04/19 01:37:05;;;;;;;22.50;6.53;;;;;;;;;;5398186;26;20576;-68
2024/04/19 01:39:30;;;;;;;10.37;4.80;;;;;;;;;;5397139;26;20254;-68
2024/04/19 01:41:56;;;;;;;6.80;3.13;;;;;;;;;;5412539;26;20569;-68
2024/04/19 01:44:21;;;;;;;10.13;5.03;;;;;;;;;;5411222;26;20454;-68
2024/04/19 01:46:46;;;;;;;15.17;5.70;;;;;;;;;;5398895;26;20233;-68
2024/04/19 01:49:11;;;;;;;13.38;5.50;;;;;;;;;;5404415;26;20233;-68
2024/04/19 01:51:36;;;;;;;16.37;5.40;;;;;;;;;;5403515;26;19999;-68
2024/04/19 01:54:02;;;;;;;12.77;5.25;;;;;;;;;;5404189;26;20231;-68
2024/04/19 01:56:27;;;;;;;17.60;5.88;;;;;;;;;;5408393;26;20007;-68
2024/04/19 01:58:52;;;;;;;14.87;5.57;;;;;;;;;;5403532;26;20081;-68
2024/04/19 02:01:17;;;;;;;13.07;5.88;;;;;;;;;;5403113;26;20764;-68
2024/04/19 02:03:42;;;;;;;13.35;5.85;;;;;;;;;;5412471;26;20011;-68
2024/04/19 02:06:08;;;;;;;14.10;6.57;;;;;;;;;;5397702;26;19993;-68
2024/04/19 02:08:34;;;;;;;13.77;5.47;;;;;;;;;;5407144;26;20241;-68
2024/04/19 02:11:00;;;;;;;12.30;6.72;;;;;;;;;;5412586;26;20022;-68
2024/04/19 02:13:25;;;;;;;15.10;6.03;;;;;;;;;;5391172;26;20000;-68
2024/04/19 02:15:50;;;;;;;11.33;5.57;;;;;;;;;;5406090;26;20068;-68
2024/04/19 02:18:15;;;;;;;12.20;7.20;;;;;;;;;;5410304;26;20245;-68
2024/04/19 02:20:40;;;;;;;11.37;7.10;;;;;;;;;;5406207;26;20295;-68
2024/04/19 02:23:06;;;;;;;14.70;7.10;;;;;;;;;;5403012;26;20274;-69
2024/04/19 02:25:31;;;;;;;13.57;6.78;;;;;;;;;;5411676;26;20003;-68
2024/04/19 02:30:54;;;;;;;15.00;4.80;;;;;;;;;;5403071;26;20621;-68
2024/04/19 02:33:20;;;;;;;12.40;6.00;;;;;;;;;;5391588;26;20464;-69
2024/04/19 02:35:45;;;;;;;6.07;4.07;;;;;;;;;;5399032;26;20137;-68
2024/04/19 02:38:10;;;;;;;11.53;5.77;;;;;;;;;;5400428;26;19995;-68
2024/04/19 02:40:35;;;;;;;8.13;4.70;;;;;;;;;;5383114;26;20229;-68
2024/04/19 02:43:00;;;;;;;13.97;6.90;;;;;;;;;;5402237;26;19995;-68
2024/04/19 02:45:25;;;;;;;8.53;5.50;;;;;;;;;;5407616;26;20623;-68
2024/04/19 02:47:51;;;;;;;21.80;7.87;;;;;;;;;;5397023;26;20234;-68
2024/04/19 02:50:16;;;;;;;11.38;6.55;;;;;;;;;;5398502;26;20524;-68
2024/04/19 02:52:41;;;;;;;15.70;7.17;;;;;;;;;;5411528;26;20003;-68
2024/04/19 02:55:06;;;;;;;10.38;6.13;;;;;;;;;;5398772;26;20842;-68
2024/04/19 02:57:32;;;;;;;10.77;6.20;;;;;;;;;;5410834;26;20027;-69
2024/04/19 02:59:57;;;;;;;16.77;7.05;;;;;;;;;;5406614;26;20346;-68
2024/04/19 03:02:22;;;;;;;11.55;6.28;;;;;;;;;;5397724;26;20060;-68
2024/04/19 03:04:47;;;;;;;16.50;6.83;;;;;;;;;;5405752;26;20004;-68
2024/04/19 03:07:12;;;;;;;13.65;5.72;;;;;;;;;;5410901;26;20695;-68
2024/04/19 03:09:37;;;;;;;12.80;6.10;;;;;;;;;;5405002;26;20402;-68
2024/04/19 03:12:03;;;;;;;10.90;6.32;;;;;;;;;;5402165;26;20296;-69
2024/04/19 03:14:28;;;;;;;7.57;4.25;;;;;;;;;;5409045;26;20127;-68
2024/04/19 03:16:53;;;;;;;9.60;5.63;;;;;;;;;;5392936;26;19992;-68
2024/04/19 03:19:18;;;;;;;14.30;6.07;;;;;;;;;;5398219;26;20642;-68
2024/04/19 03:21:44;;;;;;;9.70;5.53;;;;;;;;;;5405419;26;19996;-69
2024/04/19 03:24:09;;;;;;;14.47;6.30;;;;;;;;;;5392704;26;20282;-69
2024/04/19 03:26:34;;;;;;;14.35;6.88;;;;;;;;;;5395638;26;20274;-68
2024/04/19 03:28:59;;;;;;;12.07;6.78;;;;;;;;;;5411444;26;19991;-68
2024/04/19 03:31:24;;;;;;;14.10;5.97;;;;;;;;;;5403681;26;19996;-69
2024/04/19 03:33:50;;;;;;;14.57;6.23;;;;;;;;;;5409833;26;20237;-69
2024/04/19 03:36:15;;;;;;;12.87;6.77;;;;;;;;;;5413744;26;20237;-68
2024/04/19 03:38:40;;;;;;;13.10;5.05;;;;;;;;;;5401473;26;20233;-69
2024/04/19 03:41:05;;;;;;;16.85;5.38;;;;;;;;;;5403752;26;20496;-69
2024/04/19 03:43:40;;;;;;;6.93;4.40;;;;;;;;;;5412283;26;20469;-69
2024/04/19 03:46:05;;;;;;;9.60;5.75;;;;;;;;;;5400865;26;20233;-69
2024/04/19 03:48:30;;;;;;;12.53;5.20;;;;;;;;;;5409846;26;19991;-69
2024/04/19 03:50:56;;;;;;;9.65;3.80;;;;;;;;;;5390617;26;20633;-69
2024/04/19 03:53:21;;;;;;;10.55;5.20;;;;;;;;;;5414447;26;20029;-69
2024/04/19 03:55:46;;;;;;;12.60;5.75;;;;;;;;;;5396375;26;20036;-69
2024/04/19 03:58:11;;;;;;;8.40;4.95;;;;;;;;;;5412210;26;20006;-69
2024/04/19 04:00:39;;;;;;;8.38;4.03;;;;;;;;;;5401762;26;20007;-69
2024/04/19 04:03:05;;;;;;;9.20;3.80;;;;;;;;;;5407091;26;20438;-69
2024/04/19 04:05:30;;;;;;;11.18;5.35;;;;;;;;;;5410999;26;19995;-69
2024/04/19 04:07:55;;;;;;;9.65;4.72;;;;;;;;;;5413706;26;20334;-69
2024/04/19 04:10:20;;;;;;;7.82;3.97;;;;;;;;;;5413515;26;19992;-69
2024/04/19 04:12:46;;;;;;;13.38;5.43;;;;;;;;;;5414813;26;19992;-69
2024/04/19 04:15:11;;;;;;;11.63;5.10;;;;;;;;;;5409848;26;19991;-69
2024/04/19 04:17:36;;;;;;;11.10;5.40;;;;;;;;;;5413260;26;20360;-69
2024/04/19 04:20:03;;;;;;;12.30;5.13;;;;;;;;;;5398370;26;20354;-69
2024/04/19 04:22:28;;;;;;;11.57;5.60;;;;;;;;;;5394009;26;19999;-69
2024/04/19 04:24:53;;;;;;;10.10;5.13;;;;;;;;;;5405412;26;20018;-69
2024/04/19 04:27:18;;;;;;;7.00;4.23;;;;;;;;;;5404305;26;20241;-70
2024/04/19 04:29:44;;;;;;;6.87;3.93;;;;;;;;;;5395960;26;20268;-69
2024/04/19 04:32:09;;;;;;;4.75;3.20;;;;;;;;;;5394397;26;20227;-69
2024/04/19 04:34:35;;;;;;;15.02;3.38;;;;;;;;;;5409841;26;20462;-70
2024/04/19 04:37:00;;;;;;;8.27;3.03;;;;;;;;;;5406221;26;20004;-69
2024/04/19 04:39:25;;;;;;;6.05;3.05;;;;;;;;;;5388366;26;20081;-69
2024/04/19 04:41:50;;;;;;;7.10;4.20;;;;;;;;;;5413027;26;20015;-69
2024/04/19 04:44:16;;;;;;;8.93;4.10;;;;;;;;;;5398169;26;20767;-69
2024/04/19 04:46:41;;;;;;;3.78;2.03;;;;;;;;;;5411585;26;20245;-69
2024/04/19 04:49:07;;;;;;;4.65;2.05;;;;;;;;;;5412539;26;20003;-69
2024/04/19 04:51:32;;;;;;;4.82;2.10;;;;;;;;;;5403191;26;19995;-69
2024/04/19 04:53:58;;;;;;;5.63;1.77;;;;;;;;;;5405428;26;20007;-69
2024/04/19 04:56:23;;;;;;;4.65;1.45;;;;;;;;;;5375730;26;20604;-69
2024/04/19 04:58:48;;;;;;;1.92;1.08;;;;;;;;;;5412843;26;20594;-69
2024/04/19 05:01:13;;;;;;;5.45;2.20;;;;;;;;;;5402606;26;19999;-69
2024/04/19 05:03:38;;;;;;;4.85;2.05;;;;;;;;;;5411121;26;19992;-69
2024/04/19 05:06:04;;;;;;;5.03;2.73;;;;;;;;;;5404971;26;19992;-69
2024/04/19 05:08:29;;;;;;;6.50;2.30;;;;;;;;;;5403349;26;20241;-69
2024/04/19 05:10:54;;;;;;;5.75;2.10;;;;;;;;;;5397182;26;20004;-69
2024/04/19 05:13:19;;;;;;;3.92;1.98;;;;;;;;;;5406870;26;20000;-69
2024/04/19 05:15:47;;;;;;;3.27;1.30;;;;;;;;;;5411111;26;20054;-69
2024/04/19 05:18:12;;;;;;;4.07;1.55;;;;;;;;;;5409798;26;20420;-69
2024/04/19 05:20:37;;;;;;;4.70;1.30;;;;;;;;;;5399957;26;20004;-69
2024/04/19 05:23:03;;;;;;;7.57;1.30;;;;;;;;;;5408813;26;20013;-69
2024/04/19 05:25:28;;;;;;;3.00;1.30;;;;;;;;;;5400978;26;20495;-69
2024/04/19 05:27:53;;;;;;;3.60;1.70;;;;;;;;;;5408009;26;19999;-69
2024/04/19 05:30:18;;;;;;;4.67;1.57;;;;;;;;;;5396041;26;20270;-69
2024/04/19 05:32:43;;;;;;;3.40;1.27;;;;;;;;;;5409917;26;20262;-69
2024/04/19 05:35:09;;;;;;;9.55;1.67;;;;;;;;;;5394724;26;20413;-69
2024/04/19 05:37:34;;;;;;;2.15;1.17;;;;;;;;;;5403979;26;19995;-70
2024/04/19 05:39:59;;;;;;;1.48;0.85;;;;;;;;;;5406352;26;20010;-69
2024/04/19 05:42:24;;;;;;;5.75;3.00;;;;;;;;;;5402127;26;20420;-69
2024/04/19 05:44:50;;;;;;;2.93;1.00;;;;;;;;;;5406502;26;20467;-69
2024/04/19 05:47:15;;;;;;;3.15;1.20;;;;;;;;;;5406133;26;20428;-69
2024/04/19 05:49:40;;;;;;;5.40;1.23;;;;;;;;;;5412374;26;20111;-70
2024/04/19 05:52:05;;;;;;;2.05;1.08;;;;;;;;;;5399145;26;20009;-70
2024/04/19 05:54:30;;;;;;;0.80;0.60;;;;;;;;;;5401437;26;20081;-70
2024/04/19 05:56:56;;;;;;;6.78;1.45;;;;;;;;;;5408394;26;20720;-69
2024/04/19 05:59:23;;;;;;;2.00;1.20;;;;;;;;;;5406409;26;20026;-70
2024/04/19 06:01:48;;;;;;;5.63;1.60;;;;;;;;;;5405190;26;20238;-70
2024/04/19 06:04:13;;;;;;;2.97;1.60;;;;;;;;;;5397871;26;20011;-70
2024/04/19 06:06:38;;;;;;;3.40;1.60;;;;;;;;;;5402216;26;20355;-70
2024/04/19 06:09:04;;;;;;;9.20;1.40;;;;;;;;;;5403539;26;19988;-69
2024/04/19 06:11:29;;;;;;;5.05;1.23;;;;;;;;;;5404156;26;20222;-70
2024/04/19 06:13:54;;;;;;;2.73;1.10;;;;;;;;;;5399119;26;20008;-69
2024/04/19 06:16:20;;;;;;;5.55;1.17;;;;;;;;;;5401710;26;20285;-70
2024/04/19 06:18:45;;;;;;;1.07;0.67;;;;;;;;;;5407190;26;19996;-70
2024/04/19 06:21:10;;;;;;;3.50;0.70;;;;;;;;;;5397631;26;20229;-70
2024/04/19 06:23:35;;;;;;;3.10;1.73;;;;;;;;;;5405102;26;20279;-70
2024/04/19 06:26:06;;;;;;;2.43;1.20;;;;;;;;;;5395838;26;20265;-69
2024/04/19 06:28:34;;;;;;;1.95;1.23;;;;;;;;;;5408843;26;20235;-69
2024/04/19 06:31:09;;;;;;;1.77;1.00;;;;;;;;;;5392230;26;20440;-70
2024/04/19 06:33:34;;;;;;;4.22;1.35;;;;;;;;;;5408955;26;20003;-70
2024/04/19 06:35:59;;;;;;;3.67;1.05;;;;;;;;;;5404870;26;20011;-69
2024/04/19 06:38:25;;;;;;;4.30;0.90;;;;;;;;;;5400890;26;20397;-69
2024/04/19 06:40:50;;;;;;;4.97;1.53;;;;;;;;;;5408184;26;20531;-68
2024/04/19 06:43:16;;;;;;;3.72;1.13;;;;;;;;;;5403788;26;20290;-69
2024/04/19 06:45:41;;;;;;;2.13;1.10;;;;;;;;;;5401710;26;20010;-69
2024/04/19 06:48:07;;;;;;;4.80;1.20;;;;;;;;;;5399023;26;19991;-69
2024/04/19 06:50:32;;;;;;;0.50;0.35;;;;;;;;;;5408784;26;20290;-69
2024/04/19 06:52:57;;;;;;;2.97;1.30;;;;;;;;;;5404116;26;20007;-69
2024/04/19 06:55:22;;;;;;;2.93;1.37;;;;;;;;;;5407386;26;19987;-70
2024/04/19 06:57:48;;;;;;;3.60;1.30;;;;;;;;;;5375233;26;20573;-70
2024/04/19 07:00:13;;;;;;;8.20;1.60;;;;;;;;;;5403551;26;20241;-70
2024/04/19 07:02:38;;;;;;;1.98;1.10;;;;;;;;;;5399043;26;20275;-69
2024/04/19 07:05:03;;;;;;;7.93;1.42;;;;;;;;;;5410782;26;20028;-70
2024/04/19 07:07:29;;;;;;;3.05;1.17;;;;;;;;;;5408555;26;19992;-69
2024/04/19 07:09:54;;;;;;;2.00;1.10;;;;;;;;;;5411287;26;19992;-69
2024/04/19 07:12:19;;;;;;;1.40;0.60;;;;;;;;;;5407763;26;20340;-69
2024/04/19 07:14:45;;;;;;;5.90;1.50;;;;;;;;;;5392769;26;20314;-69
2024/04/19 07:17:11;;;;;;;3.40;1.70;;;;;;;;;;5400115;26;20285;-69
2024/04/19 07:19:36;;;;;;;3.33;1.33;;;;;;;;;;5409621;26;20007;-69
2024/04/19 07:22:01;;;;;;;2.30;1.20;;;;;;;;;;5399457;26;20011;-69
2024/04/19 07:24:26;;;;;;;2.80;1.27;;;;;;;;;;5411338;26;20277;-69
2024/04/19 07:26:51;;;;;;;2.80;1.58;;;;;;;;;;5399613;26;20004;-69
2024/04/19 07:29:17;;;;;;;3.25;1.48;;;;;;;;;;5408143;26;20000;-69
2024/04/19 07:31:42;;;;;;;7.40;1.90;;;;;;;;;;5364567;26;20509;-69
2024/04/19 07:34:07;;;;;;;3.07;1.70;;;;;;;;;;5400613;26;20237;-70
2024/04/19 07:36:32;;;;;;;3.63;1.87;;;;;;;;;;5399563;26;20226;-70
2024/04/19 07:38:57;;;;;;;2.78;1.55;;;;;;;;;;5403701;26;20238;-70
2024/04/19 07:41:22;;;;;;;4.87;1.93;;;;;;;;;;5404094;26;20076;-70
2024/04/19 07:43:48;;;;;;;4.23;2.10;;;;;;;;;;5398903;26;20267;-70
2024/04/19 07:46:13;;;;;;;5.07;1.70;;;;;;;;;;5408051;26;20229;-70
2024/04/19 07:48:38;;;;;;;3.07;1.90;;;;;;;;;;5399411;26;20230;-70
2024/04/19 07:51:03;;;;;;;3.38;2.05;;;;;;;;;;5408788;26;20642;-70
2024/04/19 07:53:30;;;;;;;12.60;2.30;;;;;;;;;;5410053;26;20465;-70
2024/04/19 07:55:55;;;;;;;3.10;1.92;;;;;;;;;;5390171;26;20004;-70
2024/04/19 07:58:23;;;;;;;3.58;2.13;;;;;;;;;;5392355;26;20407;-70
2024/04/19 08:00:48;;;;;;;3.63;1.88;;;;;;;;;;5396906;26;20430;-70
2024/04/19 08:03:14;;;;;;;5.55;2.45;;;;;;;;;;5399318;26;20000;-70
2024/04/19 08:05:39;;;;;;;5.15;2.17;;;;;;;;;;5402877;26;20000;-70
2024/04/19 08:08:04;;;;;;;3.97;2.30;;;;;;;;;;5398455;26;19999;-70
2024/04/19 08:10:29;;;;;;;8.57;3.20;;;;;;;;;;5410577;26;20351;-70
2024/04/19 08:12:54;;;;;;;4.57;3.10;;;;;;;;;;5405269;26;19999;-70
2024/04/19 08:15:20;;;;;;;4.53;2.40;;;;;;;;;;5407330;26;20992;-70
2024/04/19 08:17:45;;;;;;;7.18;3.53;;;;;;;;;;5386954;26;20023;-70
2024/04/19 08:20:10;;;;;;;11.93;6.18;;;;;;;;;;5399992;26;19992;-69
2024/04/19 08:22:36;;;;;;;9.15;5.28;;;;;;;;;;5410421;26;20025;-70
2024/04/19 08:25:01;;;;;;;9.88;5.03;;;;;;;;;;5413930;26;19999;-70
2024/04/19 08:27:26;;;;;;;16.80;7.35;;;;;;;;;;5394064;26;20354;-70
2024/04/19 08:29:51;;;;;;;12.05;6.55;;;;;;;;;;5411720;26;20010;-70
2024/04/19 08:32:17;;;;;;;16.03;7.17;;;;;;;;;;5403108;26;20004;-70
2024/04/19 08:34:44;;;;;;;11.80;6.82;;;;;;;;;;5409864;26;20247;-70
2024/04/19 08:37:09;;;;;;;11.75;5.75;;;;;;;;;;5390691;26;20482;-69
2024/04/19 08:39:35;;;;;;;13.23;7.40;;;;;;;;;;5408919;26;20004;-70
2024/04/19 08:42:04;;;;;;;16.77;8.47;;;;;;;;;;5405987;26;20290;-70
2024/04/19 08:44:30;;;;;;;14.82;9.02;;;;;;;;;;5409746;26;20290;-71
2024/04/19 08:46:56;;;;;;;15.73;7.95;;;;;;;;;;5408259;26;20035;-69
2024/04/19 08:49:22;;;;;;;15.57;8.73;;;;;;;;;;5413102;26;19999;-70
2024/04/19 08:51:47;;;;;;;22.02;8.45;;;;;;;;;;5413174;26;20338;-69
2024/04/19 08:54:12;;;;;;;12.98;8.23;;;;;;;;;;5401355;26;20010;-69
2024/04/19 08:56:39;;;;;;;17.25;8.68;;;;;;;;;;5410194;26;20003;-70
2024/04/19 08:59:04;;;;;;;24.88;9.55;;;;;;;;;;5412491;26;20416;-70
2024/04/19 09:01:30;;;;;;;15.02;7.18;;;;;;;;;;5406863;26;19996;-69
2024/04/19 09:03:55;;;;;;;20.65;8.10;;;;;;;;;;5400871;26;20015;-71
2024/04/19 09:06:20;;;;;;;18.67;10.15;;;;;;;;;;5391928;26;20085;-69
2024/04/19 09:08:46;;;;;;;19.77;8.40;;;;;;;;;;5402171;26;20000;-70
2024/04/19 09:11:12;;;;;;;19.80;9.60;;;;;;;;;;5403899;26;20007;-71
2024/04/19 09:13:37;;;;;;;17.35;9.35;;;;;;;;;;5406874;26;19995;-70
2024/04/19 09:16:03;;;;;;;19.67;11.85;;;;;;;;;;5412103;26;20289;-70
2024/04/19 09:18:28;;;;;;;18.13;8.52;;;;;;;;;;5392521;26;20000;-70
2024/04/19 09:20:53;;;;;;;20.55;7.95;;;;;;;;;;5409883;26;20447;-70
2024/04/19 09:23:19;;;;;;;17.30;8.75;;;;;;;;;;5394865;26;20000;-70
2024/04/19 09:25:50;;;;;;;16.77;10.30;;;;;;;;;;5400557;26;20014;-70
2024/04/19 09:28:16;;;;;;;12.20;6.43;;;;;;;;;;5411630;26;20351;-70
2024/04/19 09:30:41;;;;;;;12.82;6.63;;;;;;;;;;5401449;26;20018;-70
2024/04/19 09:33:06;;;;;;;10.75;6.43;;;;;;;;;;5412292;26;20007;-70
2024/04/19 09:35:31;;;;;;;12.37;5.90;;;;;;;;;;5405104;26;19992;-70
2024/04/19 09:37:57;;;;;;;13.17;6.17;;;;;;;;;;5399420;26;20281;-70
2024/04/19 09:40:23;;;;;;;12.90;6.32;;;;;;;;;;5402141;26;20274;-70
2024/04/19 09:42:50;;;;;;;11.40;8.25;;;;;;;;;;5407806;26;20113;-70
2024/04/19 09:45:16;;;;;;;14.57;6.82;;;;;;;;;;5406767;26;20486;-69
2024/04/19 09:47:44;;;;;;;12.10;6.38;;;;;;;;;;5406025;26;19996;-70
2024/04/19 09:50:11;;;;;;;14.55;8.35;;;;;;;;;;5395121;26;20265;-70
2024/04/19 09:52:36;;;;;;;14.30;8.15;;;;;;;;;;5395580;26;20032;-68
2024/04/19 09:55:16;;;;;;;14.10;7.47;;;;;;;;;;5411422;26;20447;-68
2024/04/19 09:57:46;;;;;;;14.95;7.38;;;;;;;;;;5407183;26;20297;-70
2024/04/19 10:00:12;;;;;;;13.18;7.18;;;;;;;;;;5413147;26;20011;-70
2024/04/19 10:02:38;;;;;;;14.70;7.32;;;;;;;;;;5407457;26;20450;-70
2024/04/19 10:05:04;;;;;;;15.15;7.72;;;;;;;;;;5395954;26;20409;-70
2024/04/19 10:07:30;;;;;;;15.70;7.10;;;;;;;;;;5405960;26;20072;-70
2024/04/19 10:09:56;;;;;;;14.40;7.90;;;;;;;;;;5406968;26;20010;-70
2024/04/19 10:12:21;;;;;;;11.48;7.60;;;;;;;;;;5411616;26;20350;-70
2024/04/19 10:14:46;;;;;;;15.80;8.25;;;;;;;;;;5408726;26;20964;-67
2024/04/19 10:17:12;;;;;;;15.18;8.40;;;;;;;;;;5401487;26;20451;-70
2024/04/19 10:19:38;;;;;;;18.33;7.93;;;;;;;;;;5370086;26;20129;-70
2024/04/19 10:22:04;;;;;;;14.57;6.80;;;;;;;;;;5410283;26;20010;-68
2024/04/19 10:24:30;;;;;;;12.85;7.38;;;;;;;;;;5404643;26;20003;-70
2024/04/19 10:26:55;;;;;;;14.88;7.55;;;;;;;;;;5401174;26;20380;-70
2024/04/19 10:29:21;;;;;;;21.90;7.83;;;;;;;;;;5396556;26;20530;-70
2024/04/19 10:31:53;;;;;;;15.90;7.97;;;;;;;;;;5393245;26;20245;-70
2024/04/19 10:34:19;;;;;;;21.52;8.80;;;;;;;;;;5406188;26;20000;-70
2024/04/19 10:36:47;;;;;;;22.60;8.45;;;;;;;;;;5389057;26;20441;-70
2024/04/19 10:39:12;;;;;;;17.85;7.70;;;;;;;;;;5404167;26;20039;-69
2024/04/19 10:41:48;;;;;;;18.02;8.75;;;;;;;;;;5410562;26;20069;-70
2024/04/19 10:44:16;;;;;;;14.75;6.55;;;;;;;;;;5411750;26;20004;-70
2024/04/19 10:46:47;;;;;;;10.40;6.22;;;;;;;;;;5389107;26;20014;-70
2024/04/19 10:49:12;;;;;;;17.83;8.32;;;;;;;;;;5400847;26;20000;-70
2024/04/19 10:51:38;;;;;;;14.60;6.82;;;;;;;;;;5396648;26;19991;-70
2024/04/19 10:54:04;;;;;;;4.78;2.88;;;;;;;;;;5399442;26;20014;-70
2024/04/19 10:56:29;;;;;;;9.75;2.97;;;;;;;;;;5403391;26;19999;-70
2024/04/19 10:58:56;;;;;;;6.00;2.03;;;;;;;;;;5391573;26;20011;-70
2024/04/19 11:01:22;;;;;;;7.13;2.45;;;;;;;;;;5399624;26;20621;-70
2024/04/19 11:03:48;;;;;;;9.35;3.38;;;;;;;;;;5403350;26;20006;-70
2024/04/19 11:06:13;;;;;;;3.83;2.88;;;;;;;;;;5410969;26;19996;-70
2024/04/19 11:08:38;;;;;;;4.93;2.80;;;;;;;;;;5409428;26;20000;-70
2024/04/19 11:11:04;;;;;;;7.50;3.50;;;;;;;;;;5399185;26;20028;-70
2024/04/19 11:13:29;;;;;;;6.75;2.78;;;;;;;;;;5396100;26;20002;-70
2024/04/19 11:15:56;;;;;;;7.20;3.55;;;;;;;;;;5400845;26;20006;-70
2024/04/19 11:18:21;;;;;;;9.77;3.80;;;;;;;;;;5408042;26;19996;-70
2024/04/19 11:20:46;;;;;;;12.07;4.50;;;;;;;;;;5407112;26;20399;-70
2024/04/19 11:23:11;;;;;;;6.43;3.50;;;;;;;;;;5407815;26;20006;-70
2024/04/19 11:25:38;;;;;;;4.13;2.72;;;;;;;;;;5408725;26;20351;-70
2024/04/19 11:28:03;;;;;;;6.22;3.05;;;;;;;;;;5391725;26;20397;-70
2024/04/19 11:30:35;;;;;;;8.60;2.72;;;;;;;;;;5398157;26;20068;-68
2024/04/19 11:33:00;;;;;;;4.68;2.28;;;;;;;;;;5377316;26;20034;-70
2024/04/19 11:35:26;;;;;;;7.30;2.47;;;;;;;;;;5405321;26;20000;-71
2024/04/19 11:37:51;;;;;;;6.28;2.03;;;;;;;;;;5387565;26;20279;-70
2024/04/19 11:40:27;;;;;;;8.73;2.47;;;;;;;;;;5373940;26;19999;-70
2024/04/19 11:42:53;;;;;;;3.40;1.85;;;;;;;;;;5408924;26;20288;-70
2024/04/19 11:45:18;;;;;;;7.85;2.88;;;;;;;;;;5408062;26;20003;-70
2024/04/19 11:47:44;;;;;;;8.77;2.40;;;;;;;;;;5400860;26;20275;-70
2024/04/19 11:50:09;;;;;;;16.33;4.75;;;;;;;;;;5407121;26;20141;-68
2024/04/19 11:52:34;;;;;;;3.85;2.05;;;;;;;;;;5401819;26;20000;-68
2024/04/19 11:55:01;;;;;;;5.83;1.70;;;;;;;;;;5401774;26;20003;-70
2024/04/19 11:57:26;;;;;;;8.85;1.65;;;;;;;;;;5409412;26;20592;-69
2024/04/19 11:59:51;;;;;;;4.30;1.88;;;;;;;;;;5411550;26;20015;-71
2024/04/19 12:02:17;;;;;;;7.87;1.30;;;;;;;;;;5414445;26;19996;-70
2024/04/19 12:04:42;;;;;;;10.68;2.10;;;;;;;;;;5403541;26;20237;-70
2024/04/19 12:07:07;;;;;;;12.30;1.52;;;;;;;;;;5404468;26;20018;-70
2024/04/19 12:09:33;;;;;;;2.42;1.33;;;;;;;;;;5413595;26;20011;-70
2024/04/19 12:12:00;;;;;;;7.30;1.45;;;;;;;;;;5409944;26;20449;-70
2024/04/19 12:14:25;;;;;;;9.93;1.52;;;;;;;;;;5412388;26;20474;-70
2024/04/19 12:16:50;;;;;;;4.43;1.08;;;;;;;;;;5406579;26;20062;-70
2024/04/19 12:19:15;;;;;;;4.70;1.80;;;;;;;;;;5404631;26;20004;-69
2024/04/19 12:21:41;;;;;;;3.53;1.60;;;;;;;;;;5403009;26;20272;-69
2024/04/19 12:24:06;;;;;;;10.18;2.15;;;;;;;;;;5395457;26;20249;-68
2024/04/19 12:26:31;;;;;;;7.63;2.65;;;;;;;;;;5403576;26;20004;-68
2024/04/19 12:28:56;;;;;;;4.57;2.10;;;;;;;;;;5411936;26;20010;-68
2024/04/19 12:31:25;;;;;;;12.25;3.13;;;;;;;;;;5412605;26;20003;-68
2024/04/19 12:33:50;;;;;;;13.27;3.22;;;;;;;;;;5404935;26;20461;-70
2024/04/19 12:36:15;;;;;;;15.30;3.05;;;;;;;;;;5404928;26;20007;-70
2024/04/19 12:38:41;;;;;;;6.80;3.28;;;;;;;;;;5403502;26;20027;-69
2024/04/19 12:41:07;;;;;;;9.10;2.75;;;;;;;;;;5403165;26;20014;-70
2024/04/19 12:43:32;;;;;;;8.40;2.95;;;;;;;;;;5402092;26;19996;-70
2024/04/19 12:45:57;;;;;;;7.43;2.65;;;;;;;;;;5381294;26;20018;-70
2024/04/19 12:48:22;;;;;;;9.82;3.47;;;;;;;;;;5377119;26;20453;-70
2024/04/19 12:50:48;;;;;;;9.87;3.23;;;;;;;;;;5410186;26;19996;-70
2024/04/19 12:53:13;;;;;;;8.63;2.42;;;;;;;;;;5409089;26;20225;-70
2024/04/19 12:55:38;;;;;;;12.00;3.20;;;;;;;;;;5381707;26;20035;-69
2024/04/19 12:58:03;;;;;;;6.05;3.13;;;;;;;;;;5403344;26;20415;-69
2024/04/19 13:00:28;;;;;;;11.57;2.85;;;;;;;;;;5404192;26;19999;-70
2024/04/19 13:02:55;;;;;;;9.03;3.10;;;;;;;;;;5402245;26;20000;-70
2024/04/19 13:05:21;;;;;;;9.30;1.85;;;;;;;;;;5413305;26;20779;-70
2024/04/19 13:07:46;;;;;;;10.02;2.70;;;;;;;;;;5411001;26;20047;-70
2024/04/19 13:10:11;;;;;;;7.47;1.42;;;;;;;;;;5398068;26;20037;-71
2024/04/19 13:12:36;;;;;;;4.90;0.85;;;;;;;;;;5404496;26;20006;-71
2024/04/19 13:15:01;;;;;;;3.43;0.60;;;;;;;;;;5399713;26;20462;-70
2024/04/19 13:17:27;;;;;;;5.28;0.98;;;;;;;;;;5407074;26;20275;-70
2024/04/19 13:19:52;;;;;;;2.25;0.75;;;;;;;;;;5403851;26;20007;-70
2024/04/19 13:22:17;;;;;;;3.43;0.67;;;;;;;;;;5373118;26;19999;-70
2024/04/19 13:24:42;;;;;;;1.90;0.75;;;;;;;;;;5411866;26;20775;-70
2024/04/19 13:27:07;;;;;;;1.60;0.83;;;;;;;;;;5402879;26;20229;-70
2024/04/19 13:29:34;;;;;;;2.47;0.98;;;;;;;;;;5406852;26;20282;-70
2024/04/19 13:31:59;;;;;;;2.50;0.75;;;;;;;;;;5407250;26;20014;-70
2024/04/19 13:34:24;;;;;;;2.90;0.90;;;;;;;;;;5404567;26;19992;-70
2024/04/19 13:36:49;;;;;;;1.23;0.60;;;;;;;;;;5405937;26;20573;-70
2024/04/19 13:39:14;;;;;;;7.60;1.30;;;;;;;;;;5405197;26;20229;-69
2024/04/19 13:41:40;;;;;;;3.45;0.75;;;;;;;;;;5397945;26;20245;-70
2024/04/19 13:44:06;;;;;;;2.85;0.65;;;;;;;;;;5393540;26;20058;-70
2024/04/19 13:46:31;;;;;;;2.78;0.50;;;;;;;;;;5403491;26;20089;-71
2024/04/19 13:48:56;;;;;;;1.63;0.45;;;;;;;;;;5403779;26;19996;-70
2024/04/19 13:51:23;;;;;;;3.50;0.73;;;;;;;;;;5404844;26;19989;-70
2024/04/19 13:53:49;;;;;;;3.60;0.55;;;;;;;;;;5405038;26;20245;-70
2024/04/19 13:56:14;;;;;;;3.97;0.50;;;;;;;;;;5406552;26;20582;-70
2024/04/19 13:58:40;;;;;;;2.97;0.50;;;;;;;;;;5409922;26;19991;-70
2024/04/19 14:01:05;;;;;;;14.45;0.80;;;;;;;;;;5373907;26;20365;-70
2024/04/19 14:03:30;;;;;;;8.43;0.80;;;;;;;;;;5408305;26;20007;-70
2024/04/19 14:05:56;;;;;;;1.45;0.30;;;;;;;;;;5403849;26;20454;-70
2024/04/19 14:08:21;;;;;;;3.72;0.70;;;;;;;;;;5405353;26;20034;-70
2024/04/19 14:10:47;;;;;;;1.50;0.50;;;;;;;;;;5405212;26;20061;-70
2024/04/19 14:13:13;;;;;;;2.17;0.70;;;;;;;;;;5401197;26;20787;-68
2024/04/19 14:15:38;;;;;;;3.53;0.55;;;;;;;;;;5403488;26;19996;-70
2024/04/19 14:18:03;;;;;;;2.60;0.50;;;;;;;;;;5391224;26;19999;-70
2024/04/19 14:20:28;;;;;;;1.15;0.32;;;;;;;;;;5403770;26;20007;-70
2024/04/19 14:22:53;;;;;;;2.30;0.83;;;;;;;;;;5411500;26;20023;-70
2024/04/19 14:25:19;;;;;;;3.20;0.80;;;;;;;;;;5409692;26;20268;-70
2024/04/19 14:27:45;;;;;;;2.35;0.60;;;;;;;;;;5405421;26;20282;-69
2024/04/19 14:30:11;;;;;;;1.38;0.82;;;;;;;;;;5409495;26;20010;-70
2024/04/19 14:32:36;;;;;;;4.03;0.52;;;;;;;;;;5407221;26;21583;-70